sensor_id;sensor_type;location;lat;lon;timestamp;pressure;altitude;pressure_sealevel;temperature;humidity
70053;BME280;57398;52.032;4.376;2023-03-20T00:00:29;102774.06;;;6.04;100.00
70053;BME280;57398;52.032;4.376;2023-03-20T00:03:19;102771.50;;;6.04;100.00
70053;BME280;57398;52.032;4.376;2023-03-20T00:06:14;102767.84;;;5.97;100.00
70053;BME280;57398;52.032;4.376;2023-03-20T00:09:03;102778.84;;;5.89;100.00
70053;BME280;57398;52.032;4.376;2023-03-20T00:11:54;102789.41;;;5.86;100.00
70053;BME280;57398;52.032;4.376;2023-03-20T00:14:42;102792.56;;;5.90;100.00
70053;BME280;57398;52.032;4.376;2023-03-20T00:17:30;102807.66;;;5.94;100.00
70053;BME280;57398;52.032;4.376;2023-03-20T00:20:19;102814.16;;;5.98;100.00
70053;BME280;57398;52.032;4.376;2023-03-20T00:23:09;102818.22;;;6.01;100.00
70053;BME280;57398;52.032;4.376;2023-03-20T00:25:57;102812.50;;;6.07;100.00
70053;BME280;57398;52.032;4.376;2023-03-20T00:28:46;102800.13;;;6.11;100.00
70053;BME280;57398;52.032;4.376;2023-03-20T00:31:36;102795.25;;;6.07;100.00
70053;BME280;57398;52.032;4.376;2023-03-20T00:34:26;102778.97;;;6.07;100.00
70053;BME280;57398;52.032;4.376;2023-03-20T00:37:14;102774.22;;;6.02;100.00
70053;BME280;57398;52.032;4.376;2023-03-20T00:40:05;102786.31;;;6.02;100.00
70053;BME280;57398;52.032;4.376;2023-03-20T00:42:58;102782.22;;;5.99;100.00
70053;BME280;57398;52.032;4.376;2023-03-20T00:45:46;102773.00;;;5.97;100.00
70053;BME280;57398;52.032;4.376;2023-03-20T00:48:34;102756.44;;;5.99;100.00
70053;BME280;57398;52.032;4.376;2023-03-20T00:51:22;102735.13;;;5.97;100.00
70053;BME280;57398;52.032;4.376;2023-03-20T00:54:12;102725.63;;;5.98;100.00
70053;BME280;57398;52.032;4.376;2023-03-20T00:57:05;102726.16;;;5.92;100.00
70053;BME280;57398;52.032;4.376;2023-03-20T00:59:57;102727.25;;;5.89;100.00
70053;BME280;57398;52.032;4.376;2023-03-20T01:02:47;102723.44;;;5.93;100.00
70053;BME280;57398;52.032;4.376;2023-03-20T01:05:35;102712.47;;;5.91;100.00
70053;BME280;57398;52.032;4.376;2023-03-20T01:08:24;102716.09;;;5.88;100.00
70053;BME280;57398;52.032;4.376;2023-03-20T01:11:13;102726.44;;;5.88;100.00
70053;BME280;57398;52.032;4.376;2023-03-20T01:14:02;102728.06;;;5.90;100.00
70053;BME280;57398;52.032;4.376;2023-03-20T01:16:50;102749.25;;;5.83;100.00
70053;BME280;57398;52.032;4.376;2023-03-20T01:19:38;102752.22;;;5.88;100.00
70053;BME280;57398;52.032;4.376;2023-03-20T01:22:27;102751.16;;;5.91;100.00
70053;BME280;57398;52.032;4.376;2023-03-20T01:25:15;102763.88;;;5.93;100.00
70053;BME280;57398;52.032;4.376;2023-03-20T01:28:13;102763.22;;;5.91;100.00
70053;BME280;57398;52.032;4.376;2023-03-20T01:31:03;102756.97;;;5.93;100.00
70053;BME280;57398;52.032;4.376;2023-03-20T01:33:52;102752.50;;;5.95;100.00
70053;BME280;57398;52.032;4.376;2023-03-20T01:36:40;102750.19;;;6.02;100.00
70053;BME280;57398;52.032;4.376;2023-03-20T01:39:31;102737.16;;;6.03;100.00
70053;BME280;57398;52.032;4.376;2023-03-20T01:42:20;102726.53;;;6.06;100.00
70053;BME280;57398;52.032;4.376;2023-03-20T01:45:14;102724.13;;;6.05;100.00
70053;BME280;57398;52.032;4.376;2023-03-20T01:48:14;102717.69;;;6.09;100.00
70053;BME280;57398;52.032;4.376;2023-03-20T01:51:03;102712.53;;;6.09;100.00
70053;BME280;57398;52.032;4.376;2023-03-20T01:53:55;102703.06;;;6.10;100.00
70053;BME280;57398;52.032;4.376;2023-03-20T01:56:45;102700.19;;;6.13;100.00
70053;BME280;57398;52.032;4.376;2023-03-20T01:59:37;102693.25;;;6.13;100.00
70053;BME280;57398;52.032;4.376;2023-03-20T02:02:30;102678.31;;;6.17;100.00
70053;BME280;57398;52.032;4.376;2023-03-20T02:05:21;102664.88;;;6.13;100.00
70053;BME280;57398;52.032;4.376;2023-03-20T02:08:18;102653.63;;;6.04;100.00
70053;BME280;57398;52.032;4.376;2023-03-20T02:11:09;102651.22;;;6.03;100.00
70053;BME280;57398;52.032;4.376;2023-03-20T02:13:59;102643.91;;;5.98;100.00
70053;BME280;57398;52.032;4.376;2023-03-20T02:16:48;102623.81;;;5.92;100.00
70053;BME280;57398;52.032;4.376;2023-03-20T02:19:42;102633.56;;;5.88;100.00
70053;BME280;57398;52.032;4.376;2023-03-20T02:22:58;102622.06;;;5.83;100.00
70053;BME280;57398;52.032;4.376;2023-03-20T02:26:12;102613.97;;;5.78;100.00
70053;BME280;57398;52.032;4.376;2023-03-20T02:36:18;102623.31;;;5.79;100.00
70053;BME280;57398;52.032;4.376;2023-03-20T02:39:23;102618.69;;;5.82;100.00
70053;BME280;57398;52.032;4.376;2023-03-20T02:42:19;102613.38;;;5.84;100.00
70053;BME280;57398;52.032;4.376;2023-03-20T02:45:16;102618.94;;;5.89;100.00
70053;BME280;57398;52.032;4.376;2023-03-20T02:48:13;102623.41;;;5.87;100.00
70053;BME280;57398;52.032;4.376;2023-03-20T02:51:08;102610.53;;;5.87;100.00
70053;BME280;57398;52.032;4.376;2023-03-20T02:54:05;102610.38;;;5.88;100.00
70053;BME280;57398;52.032;4.376;2023-03-20T02:57:01;102594.47;;;5.93;100.00
70053;BME280;57398;52.032;4.376;2023-03-20T02:59:54;102582.25;;;5.95;100.00
70053;BME280;57398;52.032;4.376;2023-03-20T03:02:48;102565.69;;;5.98;100.00
70053;BME280;57398;52.032;4.376;2023-03-20T03:05:42;102558.91;;;5.97;100.00
70053;BME280;57398;52.032;4.376;2023-03-20T03:08:36;102543.72;;;5.94;100.00
70053;BME280;57398;52.032;4.376;2023-03-20T03:11:26;102536.91;;;5.93;100.00
70053;BME280;57398;52.032;4.376;2023-03-20T03:14:18;102526.75;;;5.91;100.00
70053;BME280;57398;52.032;4.376;2023-03-20T03:17:09;102528.00;;;5.87;100.00
70053;BME280;57398;52.032;4.376;2023-03-20T03:20:01;102527.69;;;5.90;100.00
70053;BME280;57398;52.032;4.376;2023-03-20T03:22:51;102522.84;;;5.87;100.00
70053;BME280;57398;52.032;4.376;2023-03-20T03:25:40;102514.28;;;5.86;100.00
70053;BME280;57398;52.032;4.376;2023-03-20T03:28:31;102501.69;;;5.83;100.00
70053;BME280;57398;52.032;4.376;2023-03-20T03:31:24;102501.53;;;5.85;100.00
70053;BME280;57398;52.032;4.376;2023-03-20T03:34:16;102499.91;;;5.84;100.00
70053;BME280;57398;52.032;4.376;2023-03-20T03:37:11;102506.84;;;5.83;100.00
70053;BME280;57398;52.032;4.376;2023-03-20T03:40:06;102503.44;;;5.83;100.00
70053;BME280;57398;52.032;4.376;2023-03-20T03:43:02;102494.75;;;5.84;100.00
70053;BME280;57398;52.032;4.376;2023-03-20T03:45:57;102490.25;;;5.86;100.00
70053;BME280;57398;52.032;4.376;2023-03-20T03:48:51;102484.59;;;5.82;100.00
70053;BME280;57398;52.032;4.376;2023-03-20T03:51:42;102483.50;;;5.85;100.00
70053;BME280;57398;52.032;4.376;2023-03-20T03:54:35;102485.94;;;5.86;100.00
70053;BME280;57398;52.032;4.376;2023-03-20T03:57:30;102491.88;;;5.87;100.00
70053;BME280;57398;52.032;4.376;2023-03-20T04:00:22;102473.16;;;5.85;100.00
70053;BME280;57398;52.032;4.376;2023-03-20T04:03:12;102476.31;;;5.79;100.00
70053;BME280;57398;52.032;4.376;2023-03-20T04:06:02;102478.47;;;5.83;100.00
70053;BME280;57398;52.032;4.376;2023-03-20T04:08:51;102481.03;;;5.83;100.00
70053;BME280;57398;52.032;4.376;2023-03-20T04:11:40;102481.84;;;5.84;100.00
70053;BME280;57398;52.032;4.376;2023-03-20T04:14:28;102484.72;;;5.81;100.00
70053;BME280;57398;52.032;4.376;2023-03-20T04:17:16;102497.84;;;5.87;100.00
70053;BME280;57398;52.032;4.376;2023-03-20T04:20:05;102492.84;;;5.86;100.00
70053;BME280;57398;52.032;4.376;2023-03-20T04:22:56;102494.59;;;5.85;100.00
70053;BME280;57398;52.032;4.376;2023-03-20T04:25:43;102494.59;;;5.85;100.00
70053;BME280;57398;52.032;4.376;2023-03-20T04:28:31;102492.56;;;5.89;100.00
70053;BME280;57398;52.032;4.376;2023-03-20T04:31:20;102494.59;;;5.85;100.00
70053;BME280;57398;52.032;4.376;2023-03-20T04:34:08;102489.75;;;5.82;100.00
70053;BME280;57398;52.032;4.376;2023-03-20T04:36:56;102483.19;;;5.88;100.00
70053;BME280;57398;52.032;4.376;2023-03-20T04:39:47;102478.03;;;5.88;100.00
70053;BME280;57398;52.032;4.376;2023-03-20T04:42:35;102464.31;;;5.87;100.00
70053;BME280;57398;52.032;4.376;2023-03-20T04:45:23;102468.50;;;5.88;100.00
70053;BME280;57398;52.032;4.376;2023-03-20T04:48:12;102465.00;;;5.90;100.00
70053;BME280;57398;52.032;4.376;2023-03-20T04:51:00;102464.19;;;5.89;100.00
70053;BME280;57398;52.032;4.376;2023-03-20T04:53:48;102459.03;;;5.89;100.00
70053;BME280;57398;52.032;4.376;2023-03-20T04:56:37;102461.31;;;5.92;100.00
70053;BME280;57398;52.032;4.376;2023-03-20T04:59:26;102453.56;;;5.92;100.00
70053;BME280;57398;52.032;4.376;2023-03-20T05:02:13;102456.16;;;5.92;100.00
70053;BME280;57398;52.032;4.376;2023-03-20T05:05:04;102459.03;;;5.89;100.00
70053;BME280;57398;52.032;4.376;2023-03-20T05:07:52;102463.22;;;5.90;100.00
70053;BME280;57398;52.032;4.376;2023-03-20T05:10:40;102459.53;;;5.93;100.00
70053;BME280;57398;52.032;4.376;2023-03-20T05:13:29;102462.91;;;5.93;100.00
70053;BME280;57398;52.032;4.376;2023-03-20T05:16:17;102467.16;;;5.94;100.00
70053;BME280;57398;52.032;4.376;2023-03-20T05:19:06;102471.75;;;5.91;100.00
70053;BME280;57398;52.032;4.376;2023-03-20T05:21:54;102467.16;;;5.94;100.00
70053;BME280;57398;52.032;4.376;2023-03-20T05:24:41;102466.84;;;5.97;100.00
70053;BME280;57398;52.032;4.376;2023-03-20T05:27:29;102463.16;;;6.00;100.00
70053;BME280;57398;52.032;4.376;2023-03-20T05:30:19;102463.38;;;6.06;100.00
70053;BME280;57398;52.032;4.376;2023-03-20T05:33:07;102466.28;;;6.03;100.00
70053;BME280;57398;52.032;4.376;2023-03-20T05:35:55;102463.84;;;6.02;100.00
70053;BME280;57398;52.032;4.376;2023-03-20T05:38:43;102469.78;;;6.02;100.00
70053;BME280;57398;52.032;4.376;2023-03-20T05:41:32;102470.78;;;6.01;100.00
70053;BME280;57398;52.032;4.376;2023-03-20T05:44:20;102462.22;;;6.01;100.00
70053;BME280;57398;52.032;4.376;2023-03-20T05:47:10;102470.09;;;5.99;100.00
70053;BME280;57398;52.032;4.376;2023-03-20T05:49:58;102464.63;;;6.02;100.00
70053;BME280;57398;52.032;4.376;2023-03-20T05:52:46;102464.38;;;6.05;100.00
70053;BME280;57398;52.032;4.376;2023-03-20T05:55:34;102478.38;;;6.03;100.00
70053;BME280;57398;52.032;4.376;2023-03-20T05:58:23;102473.03;;;6.04;100.00
70053;BME280;57398;52.032;4.376;2023-03-20T06:01:11;102473.56;;;6.08;100.00
70053;BME280;57398;52.032;4.376;2023-03-20T06:04:03;102471.31;;;6.05;100.00
70053;BME280;57398;52.032;4.376;2023-03-20T06:06:51;102474.03;;;6.03;100.00
70053;BME280;57398;52.032;4.376;2023-03-20T06:09:39;102475.50;;;6.06;100.00
70053;BME280;57398;52.032;4.376;2023-03-20T06:12:27;102478.44;;;6.11;100.00
70053;BME280;57398;52.032;4.376;2023-03-20T06:15:17;102481.84;;;6.12;100.00
70053;BME280;57398;52.032;4.376;2023-03-20T06:18:05;102483.00;;;6.17;100.00
70053;BME280;57398;52.032;4.376;2023-03-20T06:20:56;102485.94;;;6.22;100.00
70053;BME280;57398;52.032;4.376;2023-03-20T06:23:44;102484.84;;;6.25;100.00
70053;BME280;57398;52.032;4.376;2023-03-20T06:26:33;102478.56;;;6.27;100.00
70053;BME280;57398;52.032;4.376;2023-03-20T06:29:21;102477.47;;;6.30;100.00
70053;BME280;57398;52.032;4.376;2023-03-20T06:32:09;102474.44;;;6.35;100.00
70053;BME280;57398;52.032;4.376;2023-03-20T06:34:58;102467.78;;;6.32;100.00
70053;BME280;57398;52.032;4.376;2023-03-20T06:37:48;102448.63;;;6.35;100.00
70053;BME280;57398;52.032;4.376;2023-03-20T06:40:36;102435.44;;;6.38;100.00
70053;BME280;57398;52.032;4.376;2023-03-20T06:43:24;102432.25;;;6.44;100.00
70053;BME280;57398;52.032;4.376;2023-03-20T06:46:12;102421.41;;;6.40;100.00
70053;BME280;57398;52.032;4.376;2023-03-20T06:49:00;102426.56;;;6.40;100.00
70053;BME280;57398;52.032;4.376;2023-03-20T06:51:48;102415.44;;;6.40;100.00
70053;BME280;57398;52.032;4.376;2023-03-20T06:54:38;102408.25;;;6.52;100.00
70053;BME280;57398;52.032;4.376;2023-03-20T06:57:27;102406.94;;;6.47;100.00
70053;BME280;57398;52.032;4.376;2023-03-20T07:00:16;102393.34;;;6.45;100.00
70053;BME280;57398;52.032;4.376;2023-03-20T07:03:05;102387.06;;;6.48;100.00
70053;BME280;57398;52.032;4.376;2023-03-20T07:05:53;102392.50;;;6.63;100.00
70053;BME280;57398;52.032;4.376;2023-03-20T07:08:41;102376.69;;;6.66;100.00
70053;BME280;57398;52.032;4.376;2023-03-20T07:11:30;102374.16;;;6.74;100.00
70053;BME280;57398;52.032;4.376;2023-03-20T07:14:20;102370.31;;;6.78;100.00
70053;BME280;57398;52.032;4.376;2023-03-20T07:17:11;102369.84;;;6.83;100.00
70053;BME280;57398;52.032;4.376;2023-03-20T07:20:00;102360.78;;;6.87;100.00
70053;BME280;57398;52.032;4.376;2023-03-20T07:22:48;102362.09;;;6.83;100.00
70053;BME280;57398;52.032;4.376;2023-03-20T07:25:36;102369.19;;;6.81;100.00
70053;BME280;57398;52.032;4.376;2023-03-20T07:28:30;102371.09;;;6.79;100.00
70053;BME280;57398;52.032;4.376;2023-03-20T07:31:19;102378.31;;;6.67;100.00
70053;BME280;57398;52.032;4.376;2023-03-20T07:34:08;102380.91;;;6.67;100.00
70053;BME280;57398;52.032;4.376;2023-03-20T07:36:56;102391.38;;;6.65;100.00
70053;BME280;57398;52.032;4.376;2023-03-20T07:39:44;102396.03;;;6.62;100.00
70053;BME280;57398;52.032;4.376;2023-03-20T07:42:33;102397.66;;;6.63;100.00
70053;BME280;57398;52.032;4.376;2023-03-20T07:45:23;102402.97;;;6.61;100.00
70053;BME280;57398;52.032;4.376;2023-03-20T07:48:11;102406.66;;;6.59;100.00
70053;BME280;57398;52.032;4.376;2023-03-20T07:50:59;102416.69;;;6.62;100.00
70053;BME280;57398;52.032;4.376;2023-03-20T07:53:47;102411.03;;;6.58;100.00
70053;BME280;57398;52.032;4.376;2023-03-20T07:56:35;102416.50;;;6.55;100.00
70053;BME280;57398;52.032;4.376;2023-03-20T07:59:23;102425.19;;;6.54;100.00
70053;BME280;57398;52.032;4.376;2023-03-20T08:02:15;102437.00;;;6.57;100.00
70053;BME280;57398;52.032;4.376;2023-03-20T08:05:04;102437.09;;;6.47;100.00
70053;BME280;57398;52.032;4.376;2023-03-20T08:07:52;102432.25;;;6.44;100.00
70053;BME280;57398;52.032;4.376;2023-03-20T08:10:40;102437.91;;;6.47;100.00
70053;BME280;57398;52.032;4.376;2023-03-20T08:13:28;102443.78;;;6.58;100.00
70053;BME280;57398;52.032;4.376;2023-03-20T08:16:16;102451.09;;;6.62;100.00
70053;BME280;57398;52.032;4.376;2023-03-20T08:19:06;102454.03;;;6.76;100.00
70053;BME280;57398;52.032;4.376;2023-03-20T08:21:54;102455.16;;;6.73;100.00
70053;BME280;57398;52.032;4.376;2023-03-20T08:24:42;102453.63;;;6.88;100.00
70053;BME280;57398;52.032;4.376;2023-03-20T08:27:30;102461.38;;;6.88;100.00
70053;BME280;57398;52.032;4.376;2023-03-20T08:30:18;102458.50;;;6.91;100.00
70053;BME280;57398;52.032;4.376;2023-03-20T08:33:07;102469.03;;;6.98;100.00
70053;BME280;57398;52.032;4.376;2023-03-20T08:35:57;102461.59;;;6.95;100.00
70053;BME280;57398;52.032;4.376;2023-03-20T08:38:46;102465.31;;;7.01;100.00
70053;BME280;57398;52.032;4.376;2023-03-20T08:41:36;102469.88;;;7.07;100.00
70053;BME280;57398;52.032;4.376;2023-03-20T08:44:24;102471.19;;;7.11;100.00
70053;BME280;57398;52.032;4.376;2023-03-20T08:47:13;102473.44;;;7.06;100.00
70053;BME280;57398;52.032;4.376;2023-03-20T08:50:02;102466.81;;;7.11;100.00
70053;BME280;57398;52.032;4.376;2023-03-20T08:52:51;102480.97;;;7.33;100.00
70053;BME280;57398;52.032;4.376;2023-03-20T08:55:39;102470.78;;;7.32;100.00
70053;BME280;57398;52.032;4.376;2023-03-20T08:58:28;102480.34;;;7.40;100.00
70053;BME280;57398;52.032;4.376;2023-03-20T09:01:16;102475.03;;;7.41;100.00
70053;BME280;57398;52.032;4.376;2023-03-20T09:04:05;102473.75;;;7.53;100.00
70053;BME280;57398;52.032;4.376;2023-03-20T09:06:53;102470.53;;;7.60;100.00
70053;BME280;57398;52.032;4.376;2023-03-20T09:09:43;102481.69;;;7.60;100.00
70053;BME280;57398;52.032;4.376;2023-03-20T09:12:31;102477.66;;;7.58;100.00
70053;BME280;57398;52.032;4.376;2023-03-20T09:15:19;102485.25;;;7.59;100.00
70053;BME280;57398;52.032;4.376;2023-03-20T09:18:07;102487.19;;;7.57;100.00
70053;BME280;57398;52.032;4.376;2023-03-20T09:20:56;102491.09;;;7.61;100.00
70053;BME280;57398;52.032;4.376;2023-03-20T09:23:44;102486.88;;;7.60;100.00
70053;BME280;57398;52.032;4.376;2023-03-20T09:26:34;102492.44;;;7.90;100.00
70053;BME280;57398;52.032;4.376;2023-03-20T09:29:22;102489.16;;;7.71;100.00
70053;BME280;57398;52.032;4.376;2023-03-20T09:32:11;102491.94;;;7.86;100.00
70053;BME280;57398;52.032;4.376;2023-03-20T09:34:59;102487.56;;;7.79;100.00
70053;BME280;57398;52.032;4.376;2023-03-20T09:37:48;102489.81;;;7.73;100.00
70053;BME280;57398;52.032;4.376;2023-03-20T09:40:48;102484.97;;;7.70;100.00
70053;BME280;57398;52.032;4.376;2023-03-20T09:43:46;102474.47;;;7.72;100.00
70053;BME280;57398;52.032;4.376;2023-03-20T09:46:52;102473.16;;;7.68;100.00
70053;BME280;57398;52.032;4.376;2023-03-20T09:50:22;102485.34;;;8.00;100.00
70053;BME280;57398;52.032;4.376;2023-03-20T09:53:16;102484.03;;;8.12;100.00
70053;BME280;57398;52.032;4.376;2023-03-20T09:56:12;102477.75;;;8.07;100.00
70053;BME280;57398;52.032;4.376;2023-03-20T09:59:04;102468.50;;;7.88;100.00
70053;BME280;57398;52.032;4.376;2023-03-20T10:01:56;102462.69;;;8.02;100.00
70053;BME280;57398;52.032;4.376;2023-03-20T10:04:47;102465.28;;;7.86;100.00
70053;BME280;57398;52.032;4.376;2023-03-20T10:07:36;102461.38;;;7.90;100.00
70053;BME280;57398;52.032;4.376;2023-03-20T10:10:30;102467.06;;;7.93;100.00
70053;BME280;57398;52.032;4.376;2023-03-20T10:13:38;102463.34;;;8.04;100.00
70053;BME280;57398;52.032;4.376;2023-03-20T10:16:41;102463.66;;;8.09;100.00
70053;BME280;57398;52.032;4.376;2023-03-20T10:19:36;102455.72;;;8.19;100.00
70053;BME280;57398;52.032;4.376;2023-03-20T10:22:31;102453.47;;;8.24;100.00
70053;BME280;57398;52.032;4.376;2023-03-20T10:25:27;102451.69;;;8.16;100.00
70053;BME280;57398;52.032;4.376;2023-03-20T10:28:21;102456.72;;;8.18;100.00
70053;BME280;57398;52.032;4.376;2023-03-20T10:31:22;102449.75;;;8.02;100.00
70053;BME280;57398;52.032;4.376;2023-03-20T10:34:27;102455.25;;;8.07;100.00
70053;BME280;57398;52.032;4.376;2023-03-20T10:37:28;102444.25;;;8.05;100.00
70053;BME280;57398;52.032;4.376;2023-03-20T10:40:27;102440.69;;;7.98;100.00
70053;BME280;57398;52.032;4.376;2023-03-20T10:43:19;102442.00;;;8.02;100.00
70053;BME280;57398;52.032;4.376;2023-03-20T10:46:10;102442.78;;;8.03;100.00
70053;BME280;57398;52.032;4.376;2023-03-20T10:49:03;102438.25;;;8.37;100.00
70053;BME280;57398;52.032;4.376;2023-03-20T10:51:58;102441.47;;;8.64;100.00
70053;BME280;57398;52.032;4.376;2023-03-20T10:54:52;102429.22;;;8.50;100.00
70053;BME280;57398;52.032;4.376;2023-03-20T10:57:46;102424.03;;;8.50;100.00
70053;BME280;57398;52.032;4.376;2023-03-20T11:00:35;102423.38;;;8.48;100.00
70053;BME280;57398;52.032;4.376;2023-03-20T11:03:25;102417.22;;;8.41;100.00
70053;BME280;57398;52.032;4.376;2023-03-20T11:06:17;102422.06;;;8.35;100.00
70053;BME280;57398;52.032;4.376;2023-03-20T11:09:15;102411.72;;;8.44;100.00
70053;BME280;57398;52.032;4.376;2023-03-20T11:12:15;102412.03;;;8.49;100.00
70053;BME280;57398;52.032;4.376;2023-03-20T11:15:21;102405.56;;;8.45;100.00
70053;BME280;57398;52.032;4.376;2023-03-20T11:18:11;102409.59;;;8.47;100.00
70053;BME280;57398;52.032;4.376;2023-03-20T11:21:01;102403.13;;;8.27;100.00
70053;BME280;57398;52.032;4.376;2023-03-20T11:23:50;102395.06;;;8.30;100.00
70053;BME280;57398;52.032;4.376;2023-03-20T11:26:41;102401.53;;;8.34;100.00
70053;BME280;57398;52.032;4.376;2023-03-20T11:29:30;102412.84;;;8.33;100.00
70053;BME280;57398;52.032;4.376;2023-03-20T11:32:26;102412.50;;;8.36;100.00
70053;BME280;57398;52.032;4.376;2023-03-20T11:35:20;102416.56;;;8.38;100.00
70053;BME280;57398;52.032;4.376;2023-03-20T11:38:13;102425.16;;;8.47;100.00
70053;BME280;57398;52.032;4.376;2023-03-20T11:41:03;102431.28;;;8.38;100.00
70053;BME280;57398;52.032;4.376;2023-03-20T11:43:54;102432.09;;;8.30;100.00
70053;BME280;57398;52.032;4.376;2023-03-20T11:46:42;102432.59;;;8.34;100.00
70053;BME280;57398;52.032;4.376;2023-03-20T11:49:31;102438.72;;;8.33;100.00
70053;BME280;57398;52.032;4.376;2023-03-20T11:52:21;102441.00;;;8.36;100.00
70053;BME280;57398;52.032;4.376;2023-03-20T11:55:23;102433.09;;;8.29;100.00
70053;BME280;57398;52.032;4.376;2023-03-20T11:58:14;102438.41;;;8.36;100.00
70053;BME280;57398;52.032;4.376;2023-03-20T12:01:07;102446.69;;;8.48;100.00
70053;BME280;57398;52.032;4.376;2023-03-20T12:04:01;102437.13;;;8.40;100.00
70053;BME280;57398;52.032;4.376;2023-03-20T12:06:53;102441.97;;;8.27;100.00
70053;BME280;57398;52.032;4.376;2023-03-20T12:09:46;102437.44;;;8.29;100.00
70053;BME280;57398;52.032;4.376;2023-03-20T12:12:38;102449.13;;;8.41;100.00
70053;BME280;57398;52.032;4.376;2023-03-20T12:15:32;102445.22;;;8.29;100.00
70053;BME280;57398;52.032;4.376;2023-03-20T12:18:25;102448.78;;;8.28;100.00
70053;BME280;57398;52.032;4.376;2023-03-20T12:21:20;102458.16;;;8.53;100.00
70053;BME280;57398;52.032;4.376;2023-03-20T12:24:12;102459.59;;;8.56;100.00
70053;BME280;57398;52.032;4.376;2023-03-20T12:27:22;102453.13;;;8.60;100.00
70053;BME280;57398;52.032;4.376;2023-03-20T12:30:15;102454.63;;;8.54;100.00
70053;BME280;57398;52.032;4.376;2023-03-20T12:33:09;102460.56;;;8.63;100.00
70053;BME280;57398;52.032;4.376;2023-03-20T12:36:01;102458.00;;;8.55;100.00
70053;BME280;57398;52.032;4.376;2023-03-20T12:38:50;102462.22;;;8.48;100.00
70053;BME280;57398;52.032;4.376;2023-03-20T12:41:45;102458.00;;;8.55;100.00
70053;BME280;57398;52.032;4.376;2023-03-20T12:44:39;102470.47;;;8.51;100.00
70053;BME280;57398;52.032;4.376;2023-03-20T12:47:50;102467.06;;;8.43;100.00
70053;BME280;57398;52.032;4.376;2023-03-20T12:50:41;102462.88;;;8.42;100.00
70053;BME280;57398;52.032;4.376;2023-03-20T12:53:42;102461.41;;;8.39;100.00
70053;BME280;57398;52.032;4.376;2023-03-20T12:56:56;102468.81;;;8.58;100.00
70053;BME280;57398;52.032;4.376;2023-03-20T12:59:59;102472.88;;;8.61;100.00
70053;BME280;57398;52.032;4.376;2023-03-20T13:03:00;102471.94;;;8.46;100.00
70053;BME280;57398;52.032;4.376;2023-03-20T13:05:56;102463.97;;;8.39;100.00
70053;BME280;57398;52.032;4.376;2023-03-20T13:12:33;102475.97;;;8.48;100.00
70053;BME280;57398;52.032;4.376;2023-03-20T13:15:30;102475.47;;;8.36;100.00
70053;BME280;57398;52.032;4.376;2023-03-20T13:18:27;102482.41;;;8.36;100.00
70053;BME280;57398;52.032;4.376;2023-03-20T13:21:23;102489.38;;;8.35;100.00
70053;BME280;57398;52.032;4.376;2023-03-20T13:24:23;102498.13;;;8.34;100.00
70053;BME280;57398;52.032;4.376;2023-03-20T13:27:22;102508.66;;;8.25;100.00
70053;BME280;57398;52.032;4.376;2023-03-20T13:30:30;102524.19;;;8.33;100.00
70053;BME280;57398;52.032;4.376;2023-03-20T13:33:37;102542.78;;;8.28;100.00
70053;BME280;57398;52.032;4.376;2023-03-20T13:36:39;102556.06;;;8.25;100.00
70053;BME280;57398;52.032;4.376;2023-03-20T13:39:33;102554.25;;;8.17;100.00
70053;BME280;57398;52.032;4.376;2023-03-20T13:42:26;102593.44;;;8.23;100.00
70053;BME280;57398;52.032;4.376;2023-03-20T13:45:24;102597.63;;;8.24;100.00
70053;BME280;57398;52.032;4.376;2023-03-20T13:48:25;102617.22;;;8.26;100.00
70053;BME280;57398;52.032;4.376;2023-03-20T13:51:22;102647.66;;;8.32;100.00
70053;BME280;57398;52.032;4.376;2023-03-20T13:54:32;102649.25;;;8.33;100.00
70053;BME280;57398;52.032;4.376;2023-03-20T13:57:40;102666.44;;;8.34;100.00
70053;BME280;57398;52.032;4.376;2023-03-20T14:00:34;102736.69;;;8.39;100.00
70053;BME280;57398;52.032;4.376;2023-03-20T14:03:26;102774.59;;;8.41;100.00
70053;BME280;57398;52.032;4.376;2023-03-20T14:06:24;102788.84;;;8.45;100.00
70053;BME280;57398;52.032;4.376;2023-03-20T14:09:31;102827.69;;;8.45;100.00
70053;BME280;57398;52.032;4.376;2023-03-20T14:12:23;102863.88;;;8.54;100.00
70053;BME280;57398;52.032;4.376;2023-03-20T14:15:12;102880.22;;;8.55;100.00
70053;BME280;57398;52.032;4.376;2023-03-20T14:18:03;102896.22;;;8.50;100.00
70053;BME280;57398;52.032;4.376;2023-03-20T14:20:55;102972.72;;;8.45;100.00
70053;BME280;57398;52.032;4.376;2023-03-20T14:23:47;103000.94;;;8.48;100.00
70053;BME280;57398;52.032;4.376;2023-03-20T14:26:38;103068.13;;;8.49;100.00
70053;BME280;57398;52.032;4.376;2023-03-20T14:29:36;103114.59;;;8.51;100.00
70053;BME280;57398;52.032;4.376;2023-03-20T14:32:33;103162.09;;;8.42;100.00
70053;BME280;57398;52.032;4.376;2023-03-20T14:35:24;103181.72;;;8.44;100.00
70053;BME280;57398;52.032;4.376;2023-03-20T14:38:22;103213.59;;;8.45;100.00
70053;BME280;57398;52.032;4.376;2023-03-20T14:41:16;103256.03;;;8.44;100.00
70053;BME280;57398;52.032;4.376;2023-03-20T14:44:21;103302.91;;;8.50;100.00
70053;BME280;57398;52.032;4.376;2023-03-20T14:47:21;105084.03;;;8.46;100.00
70053;BME280;57398;52.032;4.376;2023-03-20T14:50:18;105208.94;;;8.51;100.00
70053;BME280;57398;52.032;4.376;2023-03-20T14:53:15;105233.31;;;8.49;100.00
70053;BME280;57398;52.032;4.376;2023-03-20T14:56:10;105237.38;;;8.53;100.00
70053;BME280;57398;52.032;4.376;2023-03-20T14:59:01;105226.81;;;8.56;100.00
70053;BME280;57398;52.032;4.376;2023-03-20T15:01:56;105232.63;;;8.59;100.00
70053;BME280;57398;52.032;4.376;2023-03-20T15:04:44;105223.00;;;8.62;100.00
70053;BME280;57398;52.032;4.376;2023-03-20T15:07:35;105215.41;;;8.58;100.00
70053;BME280;57398;52.032;4.376;2023-03-20T15:10:25;105201.53;;;8.59;100.00